Time;durP1;ratioP1;P1;durP2;ratioP2;P2;SDS_P1;SDS_P2;PMS_P1;PMS_P2;Temp;Humidity;BMP_temperature;BMP_pressure;BME280_temperature;BME280_humidity;BME280_pressure;Samples;Min_cycle;Max_cycle;Signal;HPM_P1;HPM_P2
2023/12/22 00:01:08;;;;;;;24.90;3.47;;;6.00;99.90;;;;;;5047217;28;20037;-69
2023/12/22 00:03:34;;;;;;;17.95;3.20;;;6.10;99.90;;;;;;5037833;28;20063;-69
2023/12/22 00:05:59;;;;;;;20.85;3.00;;;6.20;99.90;;;;;;5034795;28;20412;-68
2023/12/22 00:08:25;;;;;;;13.75;2.05;;;6.20;99.90;;;;;;5035466;28;20055;-68
2023/12/22 00:10:50;;;;;;;17.08;2.80;;;6.00;99.90;;;;;;5036957;28;20064;-68
2023/12/22 00:13:16;;;;;;;18.17;5.10;;;5.70;99.90;;;;;;5034994;28;20045;-68
2023/12/22 00:15:45;;;;;;;16.55;3.30;;;5.60;99.90;;;;;;5036026;28;20176;-68
2023/12/22 00:18:10;;;;;;;13.00;2.20;;;5.50;99.90;;;;;;5039834;28;20508;-69
2023/12/22 00:20:36;;;;;;;19.25;2.80;;;5.50;99.90;;;;;;5038015;28;20068;-69
2023/12/22 00:23:01;;;;;;;12.65;2.63;;;5.50;99.90;;;;;;5043328;28;20056;-69
2023/12/22 00:25:27;;;;;;;17.85;2.50;;;5.50;99.90;;;;;;5039364;28;20068;-69
2023/12/22 00:27:53;;;;;;;17.92;3.30;;;5.50;99.90;;;;;;5041507;28;20045;-69
2023/12/22 00:30:18;;;;;;;10.23;2.03;;;5.50;99.90;;;;;;5045531;28;20087;-69
2023/12/22 00:32:44;;;;;;;15.40;2.55;;;5.60;99.90;;;;;;5039465;28;20044;-68
2023/12/22 00:35:10;;;;;;;15.70;2.47;;;5.70;99.90;;;;;;5042080;28;20048;-69
2023/12/22 00:37:35;;;;;;;13.05;2.13;;;5.70;99.90;;;;;;5040789;28;20140;-69
2023/12/22 00:40:04;;;;;;;13.90;2.47;;;5.80;99.90;;;;;;5056313;28;20139;-69
2023/12/22 00:42:29;;;;;;;21.60;3.83;;;5.80;99.90;;;;;;5045957;28;20045;-68
2023/12/22 00:44:55;;;;;;;21.80;2.95;;;5.90;99.90;;;;;;5040036;28;20052;-68
2023/12/22 00:47:21;;;;;;;18.60;3.78;;;5.90;99.90;;;;;;5036904;28;20458;-69
2023/12/22 00:49:46;;;;;;;23.55;3.53;;;5.90;99.90;;;;;;5044232;28;20049;-69
2023/12/22 00:52:12;;;;;;;18.65;2.97;;;5.80;99.90;;;;;;5039188;28;20124;-69
2023/12/22 00:54:37;;;;;;;13.50;2.33;;;5.90;99.90;;;;;;5042747;28;20227;-69
2023/12/22 00:57:04;;;;;;;12.73;2.00;;;5.90;99.90;;;;;;5043362;28;20036;-69
2023/12/22 00:59:29;;;;;;;13.80;2.88;;;5.90;99.90;;;;;;5046753;28;20045;-69
2023/12/22 01:01:55;;;;;;;16.42;2.83;;;5.90;99.90;;;;;;5045036;28;20124;-69
2023/12/22 01:04:21;;;;;;;18.45;3.03;;;6.00;99.90;;;;;;5039079;28;20156;-69
2023/12/22 01:06:46;;;;;;;16.95;2.70;;;6.00;99.90;;;;;;5040041;28;20037;-69
2023/12/22 01:09:12;;;;;;;17.15;2.95;;;6.00;99.90;;;;;;5044137;28;20041;-69
2023/12/22 01:11:38;;;;;;;15.77;3.85;;;6.10;99.90;;;;;;5045310;28;20044;-69
2023/12/22 01:14:03;;;;;;;15.50;2.58;;;6.20;99.90;;;;;;5045257;28;20115;-69
2023/12/22 01:16:29;;;;;;;13.20;2.10;;;6.20;99.90;;;;;;5041680;28;20075;-69
2023/12/22 01:18:54;;;;;;;16.60;2.28;;;6.20;99.90;;;;;;5046650;28;20068;-69
2023/12/22 01:21:20;;;;;;;22.45;2.80;;;6.20;99.90;;;;;;5042647;28;20053;-69
2023/12/22 01:23:46;;;;;;;13.60;2.33;;;6.20;99.90;;;;;;5034546;28;20048;-69
2023/12/22 01:26:11;;;;;;;14.45;3.25;;;6.20;99.90;;;;;;5038779;28;20064;-69
2023/12/22 01:28:37;;;;;;;10.77;2.20;;;6.20;99.90;;;;;;5042848;28;20152;-68
2023/12/22 01:31:03;;;;;;;18.77;3.63;;;6.20;99.90;;;;;;5047121;28;20112;-69
2023/12/22 01:33:29;;;;;;;15.40;2.10;;;6.10;99.90;;;;;;5039373;28;20045;-69
2023/12/22 01:35:55;;;;;;;17.00;2.53;;;6.10;99.90;;;;;;5040326;28;20068;-69
2023/12/22 01:38:21;;;;;;;17.80;2.72;;;6.20;99.90;;;;;;5035582;28;20048;-70
2023/12/22 01:40:47;;;;;;;18.73;3.33;;;6.20;99.90;;;;;;5040825;28;20041;-68
2023/12/22 01:43:21;;;;;;;15.02;2.50;;;6.20;99.90;;;;;;5043888;28;20088;-68
2023/12/22 01:45:48;;;;;;;18.92;2.85;;;6.20;99.90;;;;;;5046513;28;20049;-68
2023/12/22 01:48:13;;;;;;;20.15;3.35;;;6.20;99.90;;;;;;5044969;28;20083;-68
2023/12/22 01:50:39;;;;;;;18.95;3.00;;;6.20;99.90;;;;;;5046117;28;20056;-68
2023/12/22 01:53:05;;;;;;;20.60;3.65;;;6.30;99.90;;;;;;5047027;28;20045;-68
2023/12/22 01:55:31;;;;;;;13.35;2.50;;;6.20;99.90;;;;;;5044371;28;20049;-68
2023/12/22 01:57:56;;;;;;;12.57;2.20;;;6.20;99.90;;;;;;5041408;28;20810;-68
2023/12/22 02:00:22;;;;;;;13.75;2.92;;;6.20;99.90;;;;;;5047152;28;20037;-68
2023/12/22 02:02:48;;;;;;;19.88;3.05;;;6.30;99.90;;;;;;5048480;28;20051;-68
2023/12/22 02:05:14;;;;;;;19.23;4.90;;;6.30;99.90;;;;;;5048780;28;20053;-68
2023/12/22 02:07:43;;;;;;;21.45;5.07;;;6.30;99.90;;;;;;5042085;28;20056;-68
2023/12/22 02:10:09;;;;;;;9.85;2.38;;;6.30;99.90;;;;;;5045887;28;20051;-68
2023/12/22 02:12:38;;;;;;;11.32;2.08;;;6.30;99.90;;;;;;5049086;28;20136;-68
2023/12/22 02:15:05;;;;;;;18.08;4.57;;;6.30;99.90;;;;;;5048559;28;20127;-68
2023/12/22 02:17:49;;;;;;;16.50;1.88;;;6.30;99.90;;;;;;5041616;28;20171;-68
2023/12/22 02:20:14;;;;;;;11.32;2.05;;;6.40;99.90;;;;;;5046474;28;20044;-68
2023/12/22 02:22:40;;;;;;;9.07;1.73;;;6.40;99.90;;;;;;5045665;28;20044;-68
2023/12/22 02:25:06;;;;;;;12.48;1.92;;;6.40;99.90;;;;;;5039357;28;20049;-68
2023/12/22 02:27:47;;;;;;;15.88;2.42;;;6.40;99.90;;;;;;5040609;28;20369;-69
2023/12/22 02:30:34;;;;;;;19.55;2.70;;;6.30;99.90;;;;;;5044119;28;20057;-68
2023/12/22 02:33:03;;;;;;;17.65;2.60;;;6.30;99.90;;;;;;5047892;28;20476;-67
2023/12/22 02:35:31;;;;;;;16.20;2.50;;;6.30;99.90;;;;;;5044156;28;20679;-69
2023/12/22 02:37:58;;;;;;;15.45;2.75;;;6.20;99.90;;;;;;5041805;28;20126;-69
2023/12/22 02:40:25;;;;;;;11.73;2.60;;;6.20;99.90;;;;;;5043891;28;20452;-68
2023/12/22 02:42:52;;;;;;;21.92;3.15;;;6.20;99.90;;;;;;5047289;28;20051;-68
2023/12/22 02:45:19;;;;;;;20.02;2.60;;;6.20;99.90;;;;;;5050496;28;20033;-68
2023/12/22 02:47:45;;;;;;;18.42;3.65;;;6.20;99.90;;;;;;5044465;28;20083;-69
2023/12/22 02:50:13;;;;;;;12.18;2.53;;;6.20;99.90;;;;;;5048424;28;20073;-69
2023/12/22 02:52:38;;;;;;;17.92;2.25;;;6.20;99.90;;;;;;5044611;28;20536;-68
2023/12/22 02:55:05;;;;;;;15.52;1.90;;;6.20;99.90;;;;;;5047063;28;20073;-68
2023/12/22 02:57:31;;;;;;;18.73;3.33;;;6.10;99.90;;;;;;5050489;28;20047;-68
2023/12/22 02:59:57;;;;;;;13.52;2.33;;;6.10;99.90;;;;;;5046670;28;21054;-68
2023/12/22 03:02:22;;;;;;;22.20;3.38;;;6.10;99.90;;;;;;5054040;28;20045;-68
2023/12/22 03:04:48;;;;;;;17.65;3.47;;;6.10;99.90;;;;;;5039657;28;20064;-68
2023/12/22 03:07:14;;;;;;;13.77;2.03;;;6.10;99.90;;;;;;5041776;28;20248;-68
2023/12/22 03:09:41;;;;;;;21.65;2.92;;;6.10;99.90;;;;;;5047330;28;20045;-68
2023/12/22 03:12:07;;;;;;;12.13;1.80;;;6.10;99.90;;;;;;5052212;28;20037;-68
2023/12/22 03:14:33;;;;;;;15.68;2.45;;;6.10;99.90;;;;;;5049055;28;20423;-68
2023/12/22 03:17:06;;;;;;;12.50;1.90;;;6.20;99.90;;;;;;5052701;28;20114;-68
2023/12/22 03:19:33;;;;;;;12.45;2.13;;;6.20;99.90;;;;;;5044763;28;20041;-68
2023/12/22 03:21:59;;;;;;;15.93;2.65;;;6.30;99.90;;;;;;5038330;28;20042;-68
2023/12/22 03:24:25;;;;;;;11.27;1.90;;;6.30;99.90;;;;;;5046043;28;20057;-68
2023/12/22 03:26:52;;;;;;;8.15;1.70;;;6.40;99.90;;;;;;5038530;28;20148;-68
2023/12/22 03:29:18;;;;;;;10.23;1.83;;;6.40;99.90;;;;;;5036056;28;20044;-68
2023/12/22 03:31:44;;;;;;;12.70;1.50;;;6.40;99.90;;;;;;5046197;28;20045;-68
2023/12/22 03:34:10;;;;;;;12.07;1.98;;;6.40;99.90;;;;;;5050235;28;20044;-68
2023/12/22 03:36:35;;;;;;;8.32;1.27;;;6.40;99.90;;;;;;5042281;28;20037;-68
2023/12/22 03:39:02;;;;;;;14.82;2.15;;;6.40;99.90;;;;;;5042307;28;20136;-68
2023/12/22 03:41:29;;;;;;;10.18;1.55;;;6.40;99.90;;;;;;5044103;28;20060;-68
2023/12/22 03:43:58;;;;;;;9.73;2.03;;;6.30;99.90;;;;;;5044628;28;20058;-68
2023/12/22 03:46:24;;;;;;;10.20;1.38;;;6.30;99.90;;;;;;5043811;28;20131;-68
2023/12/22 03:48:53;;;;;;;10.32;1.65;;;6.20;99.90;;;;;;5052830;28;20076;-68
2023/12/22 03:51:18;;;;;;;9.43;1.60;;;6.20;99.90;;;;;;5041462;28;20047;-68
2023/12/22 03:53:44;;;;;;;7.38;1.40;;;6.10;99.90;;;;;;5045053;28;20057;-69
2023/12/22 03:56:10;;;;;;;11.10;1.48;;;6.10;99.90;;;;;;5043362;28;20041;-68
2023/12/22 03:58:38;;;;;;;9.85;1.50;;;6.00;99.90;;;;;;5040458;28;20128;-68
2023/12/22 04:01:07;;;;;;;6.82;1.40;;;6.10;99.90;;;;;;5040977;28;20140;-68
2023/12/22 04:03:33;;;;;;;11.43;1.77;;;6.00;99.90;;;;;;5047648;28;20048;-68
2023/12/22 04:06:04;;;;;;;5.65;1.10;;;6.10;99.90;;;;;;5044747;28;20045;-68
2023/12/22 04:08:30;;;;;;;10.93;1.50;;;6.00;99.90;;;;;;5040252;28;20037;-68
2023/12/22 04:10:56;;;;;;;37.75;2.97;;;6.00;99.90;;;;;;5033834;28;20397;-68
2023/12/22 04:13:21;;;;;;;12.77;1.67;;;6.00;99.90;;;;;;5041493;28;20660;-68
2023/12/22 04:15:47;;;;;;;6.88;1.52;;;6.00;99.90;;;;;;5038608;28;20079;-68
2023/12/22 04:18:12;;;;;;;8.30;1.33;;;6.00;99.90;;;;;;5044521;28;20455;-68
2023/12/22 04:20:38;;;;;;;13.93;1.88;;;6.00;99.90;;;;;;5039095;28;20053;-68
2023/12/22 04:23:04;;;;;;;11.23;2.17;;;6.00;99.90;;;;;;5042976;28;20456;-68
2023/12/22 04:25:30;;;;;;;9.35;1.50;;;6.00;99.90;;;;;;5045007;28;20036;-68
2023/12/22 04:27:56;;;;;;;12.50;1.58;;;5.90;99.90;;;;;;5044128;28;20632;-68
2023/12/22 04:30:21;;;;;;;21.10;3.35;;;6.00;99.90;;;;;;5040433;28;21674;-68
2023/12/22 04:32:47;;;;;;;10.85;2.25;;;6.00;99.90;;;;;;5040889;28;20106;-68
2023/12/22 04:35:13;;;;;;;14.57;1.65;;;6.00;99.90;;;;;;5045554;28;20087;-68
2023/12/22 04:37:38;;;;;;;11.90;1.90;;;5.90;99.90;;;;;;5039168;28;20484;-68
2023/12/22 04:40:04;;;;;;;13.38;2.15;;;5.90;99.90;;;;;;5042764;28;20049;-68
2023/12/22 04:42:30;;;;;;;9.38;1.98;;;5.90;99.90;;;;;;5041725;28;20151;-68
2023/12/22 04:44:55;;;;;;;13.50;1.70;;;5.90;99.90;;;;;;5038902;28;20439;-68
2023/12/22 04:47:21;;;;;;;8.98;1.73;;;5.90;99.90;;;;;;5039058;28;20492;-68
2023/12/22 04:49:47;;;;;;;13.00;2.03;;;5.90;99.90;;;;;;5046056;28;20056;-68
2023/12/22 04:52:12;;;;;;;12.18;1.63;;;5.80;99.90;;;;;;5044900;28;20061;-68
2023/12/22 04:54:38;;;;;;;12.60;2.03;;;5.80;99.90;;;;;;5042620;28;20048;-68
2023/12/22 04:57:04;;;;;;;16.83;2.50;;;5.70;99.90;;;;;;5039563;28;20120;-68
2023/12/22 04:59:30;;;;;;;9.55;1.55;;;5.80;99.90;;;;;;5040181;28;20485;-69
2023/12/22 05:01:56;;;;;;;13.55;2.17;;;5.70;99.90;;;;;;5069908;28;20047;-68
2023/12/22 05:04:21;;;;;;;14.50;1.98;;;5.80;99.90;;;;;;5039104;28;20088;-68
2023/12/22 05:06:48;;;;;;;7.25;1.73;;;5.80;99.90;;;;;;5042838;28;20524;-68
2023/12/22 05:09:14;;;;;;;15.23;1.95;;;5.80;99.90;;;;;;5043095;28;20045;-68
2023/12/22 05:11:40;;;;;;;11.90;1.50;;;5.80;99.90;;;;;;5048724;28;20138;-68
2023/12/22 05:14:06;;;;;;;12.35;2.60;;;5.80;99.90;;;;;;5041201;28;20402;-68
2023/12/22 05:16:32;;;;;;;11.88;1.90;;;5.80;99.90;;;;;;5048567;28;20053;-68
2023/12/22 05:18:58;;;;;;;13.05;1.60;;;5.90;99.90;;;;;;5046556;28;20040;-68
2023/12/22 05:21:24;;;;;;;13.85;1.98;;;5.90;99.90;;;;;;5046650;28;20047;-68
2023/12/22 05:23:50;;;;;;;17.10;2.53;;;5.90;99.90;;;;;;5040439;28;20440;-68
2023/12/22 05:26:22;;;;;;;19.67;4.45;;;6.00;99.90;;;;;;5055008;28;20041;-69
2023/12/22 05:28:51;;;;;;;22.58;4.70;;;6.20;99.90;;;;;;5060748;28;20057;-68
2023/12/22 05:31:18;;;;;;;16.52;2.25;;;6.30;99.90;;;;;;5048802;28;20055;-68
2023/12/22 05:33:44;;;;;;;21.85;2.88;;;6.30;99.90;;;;;;5041693;28;20049;-68
2023/12/22 05:36:10;;;;;;;20.27;3.20;;;6.40;99.90;;;;;;5043250;28;20045;-68
2023/12/22 05:38:39;;;;;;;9.20;2.47;;;6.50;99.90;;;;;;5044041;28;20447;-68
2023/12/22 05:41:06;;;;;;;10.52;2.03;;;6.50;99.90;;;;;;5042724;28;20496;-68
2023/12/22 05:43:33;;;;;;;12.07;1.88;;;6.60;99.90;;;;;;5048872;28;20053;-68
2023/12/22 05:45:59;;;;;;;14.45;3.60;;;6.60;99.90;;;;;;5048626;28;20037;-69
2023/12/22 05:48:25;;;;;;;12.77;2.05;;;6.60;99.90;;;;;;5047856;28;20051;-68
2023/12/22 05:50:51;;;;;;;14.65;1.98;;;6.60;99.90;;;;;;5043147;28;20041;-68
2023/12/22 05:53:17;;;;;;;12.00;2.13;;;6.60;99.90;;;;;;5045395;28;20045;-68
2023/12/22 05:55:42;;;;;;;15.02;1.92;;;6.60;99.90;;;;;;5047334;28;20066;-68
2023/12/22 05:58:08;;;;;;;15.70;2.15;;;6.60;99.90;;;;;;5047733;28;20041;-68
2023/12/22 06:00:34;;;;;;;12.43;1.90;;;6.70;99.90;;;;;;5044319;28;20064;-68
2023/12/22 06:03:01;;;;;;;9.80;2.17;;;6.70;99.90;;;;;;5048187;28;20417;-68
2023/12/22 06:05:27;;;;;;;24.02;3.63;;;6.60;99.90;;;;;;5041529;28;20435;-68
2023/12/22 06:07:52;;;;;;;14.52;2.15;;;6.60;99.90;;;;;;5049430;28;20055;-68
2023/12/22 06:10:18;;;;;;;15.73;2.80;;;6.60;99.90;;;;;;5041901;28;20055;-68
2023/12/22 06:12:44;;;;;;;13.38;1.75;;;6.60;99.90;;;;;;5046609;28;20120;-68
2023/12/22 06:15:10;;;;;;;14.05;2.28;;;6.60;99.90;;;;;;5046375;28;20159;-68
2023/12/22 06:17:36;;;;;;;12.85;2.25;;;6.60;99.90;;;;;;5036200;28;23845;-69
2023/12/22 06:20:01;;;;;;;16.23;2.00;;;6.60;99.90;;;;;;5045071;28;20051;-68
2023/12/22 06:22:27;;;;;;;16.48;2.30;;;6.70;99.90;;;;;;5047979;28;20130;-68
2023/12/22 06:24:52;;;;;;;19.52;2.90;;;6.60;99.90;;;;;;5043760;28;20690;-68
2023/12/22 06:27:18;;;;;;;17.83;2.47;;;6.60;99.90;;;;;;5041011;28;20116;-68
2023/12/22 06:29:44;;;;;;;14.30;2.50;;;6.60;99.90;;;;;;5035801;28;20045;-69
2023/12/22 06:32:09;;;;;;;21.58;4.20;;;6.60;99.90;;;;;;5033869;28;20072;-69
2023/12/22 06:34:35;;;;;;;14.40;2.03;;;6.60;99.90;;;;;;5044785;28;20037;-68
2023/12/22 06:37:00;;;;;;;15.27;2.33;;;6.60;99.90;;;;;;5038281;28;20084;-68
2023/12/22 06:39:26;;;;;;;13.27;2.15;;;6.60;99.90;;;;;;5033213;28;20365;-68
2023/12/22 06:41:52;;;;;;;16.42;2.42;;;6.60;99.90;;;;;;5042674;28;20048;-68
2023/12/22 06:44:17;;;;;;;12.30;2.20;;;6.60;99.90;;;;;;5039352;28;20404;-68
2023/12/22 06:46:43;;;;;;;13.68;1.92;;;6.60;99.90;;;;;;5037930;28;20137;-68
2023/12/22 06:49:08;;;;;;;12.35;2.15;;;6.70;99.90;;;;;;5040950;28;20055;-68
2023/12/22 06:51:35;;;;;;;18.35;4.57;;;6.70;99.90;;;;;;5040349;28;20128;-69
2023/12/22 06:54:01;;;;;;;8.60;1.55;;;6.70;99.90;;;;;;5036450;28;20127;-68
2023/12/22 06:56:29;;;;;;;17.67;3.10;;;6.80;99.90;;;;;;5035480;28;20042;-69
2023/12/22 06:58:57;;;;;;;9.27;1.65;;;6.80;99.90;;;;;;5040484;28;20057;-68
2023/12/22 07:01:34;;;;;;;11.30;2.00;;;6.70;99.90;;;;;;5042652;28;20052;-69
2023/12/22 07:04:02;;;;;;;12.13;2.67;;;6.80;99.90;;;;;;5042464;28;20063;-68
2023/12/22 07:06:32;;;;;;;15.95;2.00;;;6.80;99.90;;;;;;5038787;28;20053;-69
2023/12/22 07:09:19;;;;;;;14.02;2.28;;;6.80;99.90;;;;;;5034755;28;20109;-68
2023/12/22 07:11:52;;;;;;;12.38;2.92;;;6.80;99.90;;;;;;5043927;28;20132;-68
2023/12/22 07:14:18;;;;;;;11.25;1.42;;;6.80;99.90;;;;;;5038666;28;20120;-68
2023/12/22 07:16:44;;;;;;;19.02;2.85;;;6.80;99.90;;;;;;5041989;28;20135;-68
2023/12/22 07:19:12;;;;;;;14.88;3.33;;;6.80;99.90;;;;;;5040794;28;20051;-69
2023/12/22 07:21:39;;;;;;;12.65;2.72;;;6.70;99.90;;;;;;5067253;28;21272;-68
2023/12/22 07:24:05;;;;;;;13.48;2.45;;;6.80;99.90;;;;;;5041278;28;20115;-68
2023/12/22 07:26:31;;;;;;;19.73;4.68;;;6.80;99.90;;;;;;5034447;28;20033;-68
2023/12/22 07:28:56;;;;;;;13.27;2.00;;;6.80;99.90;;;;;;5067757;28;20127;-69
2023/12/22 07:31:22;;;;;;;14.35;2.30;;;6.80;99.90;;;;;;5041622;28;20125;-68
2023/12/22 07:33:48;;;;;;;25.70;5.75;;;6.80;99.90;;;;;;5043217;28;20120;-69
2023/12/22 07:36:13;;;;;;;11.20;3.42;;;6.80;99.90;;;;;;5037401;28;20049;-68
2023/12/22 07:38:39;;;;;;;19.17;2.83;;;6.90;99.90;;;;;;5042763;28;20049;-69
2023/12/22 07:41:05;;;;;;;18.73;3.95;;;6.80;99.90;;;;;;5042085;28;20516;-69
2023/12/22 07:43:31;;;;;;;18.83;2.75;;;6.80;99.90;;;;;;5036240;28;20120;-68
2023/12/22 07:45:57;;;;;;;16.00;2.35;;;6.80;99.90;;;;;;5042331;28;20140;-69
2023/12/22 07:48:23;;;;;;;11.25;1.85;;;6.80;99.90;;;;;;5033187;28;20033;-68
2023/12/22 07:50:49;;;;;;;16.98;2.72;;;6.80;99.90;;;;;;5039586;28;20056;-69
2023/12/22 07:53:15;;;;;;;18.35;3.38;;;6.80;99.90;;;;;;5043063;28;20045;-69
2023/12/22 07:55:41;;;;;;;19.23;4.00;;;6.80;99.90;;;;;;5039155;28;20210;-69
2023/12/22 07:58:07;;;;;;;15.88;2.15;;;6.80;99.90;;;;;;5038601;28;20033;-69
2023/12/22 08:00:33;;;;;;;10.68;1.70;;;6.90;99.90;;;;;;5042974;28;20435;-68
2023/12/22 08:03:00;;;;;;;15.70;2.65;;;6.80;99.90;;;;;;5045939;28;20809;-69
2023/12/22 08:05:26;;;;;;;13.60;2.47;;;6.80;99.90;;;;;;5040655;28;20049;-68
2023/12/22 08:07:52;;;;;;;11.65;1.60;;;6.80;99.90;;;;;;5038453;28;20719;-69
2023/12/22 08:10:17;;;;;;;11.68;2.28;;;6.80;99.90;;;;;;5037918;28;20086;-69
2023/12/22 08:12:43;;;;;;;23.45;4.85;;;6.80;99.90;;;;;;5036689;28;20037;-68
2023/12/22 08:15:12;;;;;;;12.70;2.22;;;6.80;99.90;;;;;;5038085;28;20049;-68
2023/12/22 08:17:46;;;;;;;24.45;5.70;;;6.80;99.90;;;;;;5042456;28;20691;-68
2023/12/22 08:20:16;;;;;;;20.15;2.75;;;6.80;99.90;;;;;;5039083;28;20059;-68
2023/12/22 08:22:43;;;;;;;12.73;1.80;;;6.80;99.90;;;;;;5036986;28;20401;-68
2023/12/22 08:25:09;;;;;;;13.63;2.53;;;6.80;99.90;;;;;;5036188;28;20045;-70
2023/12/22 08:27:34;;;;;;;13.20;2.10;;;6.80;99.90;;;;;;5046290;28;20407;-70
2023/12/22 08:30:00;;;;;;;21.80;4.63;;;6.80;99.90;;;;;;5050773;28;20047;-69
2023/12/22 08:32:26;;;;;;;17.98;2.25;;;6.80;99.90;;;;;;5050193;28;20092;-68
2023/12/22 08:34:51;;;;;;;14.75;2.47;;;6.80;99.90;;;;;;5039006;28;20068;-69
2023/12/22 08:37:17;;;;;;;12.52;1.95;;;6.90;99.90;;;;;;5045049;28;20129;-68
2023/12/22 08:39:42;;;;;;;16.70;2.03;;;6.90;99.90;;;;;;5040986;28;20123;-68
2023/12/22 08:42:08;;;;;;;14.70;2.05;;;6.90;99.90;;;;;;5042899;28;20607;-68
2023/12/22 08:44:34;;;;;;;21.90;4.93;;;6.80;99.90;;;;;;5037062;28;20044;-69
2023/12/22 08:46:59;;;;;;;16.73;1.73;;;6.90;99.90;;;;;;5031900;28;20100;-69
2023/12/22 08:49:25;;;;;;;12.30;1.58;;;6.80;99.90;;;;;;5046032;28;20500;-69
2023/12/22 08:51:51;;;;;;;20.95;4.53;;;6.90;99.90;;;;;;5035467;28;20425;-69
2023/12/22 08:54:16;;;;;;;11.85;2.17;;;6.80;99.90;;;;;;5038046;28;20477;-69
2023/12/22 08:56:42;;;;;;;10.02;1.92;;;6.80;99.90;;;;;;5042480;28;20059;-68
2023/12/22 08:59:08;;;;;;;10.40;1.73;;;6.80;99.90;;;;;;5049202;28;20067;-70
2023/12/22 09:01:34;;;;;;;22.67;2.83;;;6.80;99.90;;;;;;5050906;28;20041;-71
2023/12/22 09:04:01;;;;;;;7.47;1.50;;;6.80;99.90;;;;;;5048486;28;20111;-69
2023/12/22 09:06:27;;;;;;;10.63;2.05;;;6.80;99.90;;;;;;5050158;28;20229;-71
2023/12/22 09:08:53;;;;;;;11.02;1.55;;;6.90;99.90;;;;;;5043063;28;20550;-69
2023/12/22 09:11:21;;;;;;;7.97;1.38;;;6.90;99.90;;;;;;5051187;28;20045;-67
2023/12/22 09:13:46;;;;;;;;;;;6.90;99.90;;;;;;5045305;28;20045;-67
2023/12/22 09:16:15;;;;;;;9.43;2.05;;;6.90;99.90;;;;;;5049755;28;19928;-70
2023/12/22 09:18:42;;;;;;;3.72;1.30;;;6.90;99.90;;;;;;5048728;28;20559;-68
2023/12/22 09:21:08;;;;;;;5.60;0.88;;;6.90;99.90;;;;;;5049306;28;20055;-68
2023/12/22 09:23:33;;;;;;;9.63;2.33;;;7.00;99.90;;;;;;5048855;28;20405;-69
2023/12/22 09:25:59;;;;;;;8.52;1.13;;;7.00;99.90;;;;;;5048237;28;20124;-68
2023/12/22 09:28:25;;;;;;;9.88;1.05;;;7.00;99.90;;;;;;5051966;28;20044;-69
2023/12/22 09:30:51;;;;;;;6.22;0.93;;;7.00;99.90;;;;;;5045065;28;20091;-70
2023/12/22 09:33:16;;;;;;;8.07;1.17;;;7.10;99.90;;;;;;5049423;28;20048;-70
2023/12/22 09:35:42;;;;;;;9.82;2.25;;;7.10;99.90;;;;;;5048232;28;20072;-68
2023/12/22 09:38:12;;;;;;;3.08;0.90;;;7.10;99.90;;;;;;5050728;28;20136;-70
2023/12/22 09:40:39;;;;;;;7.55;1.83;;;7.10;99.90;;;;;;5043301;28;20166;-69
2023/12/22 09:43:06;;;;;;;4.65;0.90;;;7.10;99.90;;;;;;5039359;28;20049;-69
2023/12/22 09:45:37;;;;;;;8.07;1.13;;;7.20;99.90;;;;;;5047117;28;20122;-69
2023/12/22 09:48:05;;;;;;;4.40;0.80;;;7.20;99.90;;;;;;5058185;28;20084;-67
2023/12/22 09:50:31;;;;;;;7.43;0.95;;;7.20;99.90;;;;;;5038752;28;20129;-69
2023/12/22 09:52:57;;;;;;;7.38;1.08;;;7.20;99.90;;;;;;5049561;28;20060;-69
2023/12/22 09:55:23;;;;;;;3.63;0.98;;;7.20;99.90;;;;;;5046482;28;20061;-69
2023/12/22 09:57:51;;;;;;;3.90;0.93;;;7.20;99.90;;;;;;5049304;28;20039;-68
2023/12/22 10:00:18;;;;;;;4.57;0.85;;;7.20;99.90;;;;;;5048518;28;20057;-70
2023/12/22 10:02:45;;;;;;;4.38;0.88;;;7.20;99.90;;;;;;5040583;28;20057;-70
2023/12/22 10:05:13;;;;;;;8.18;1.23;;;7.20;99.90;;;;;;5038589;28;20051;-70
2023/12/22 10:07:40;;;;;;;5.85;1.30;;;7.20;99.90;;;;;;5053083;28;20079;-70
2023/12/22 10:10:07;;;;;;;5.68;1.33;;;7.20;99.90;;;;;;5050101;28;20500;-70
2023/12/22 10:12:35;;;;;;;9.27;1.83;;;7.20;99.90;;;;;;5052325;28;20033;-70
2023/12/22 10:15:01;;;;;;;7.45;1.90;;;7.20;99.90;;;;;;5074740;28;20063;-69
2023/12/22 10:17:28;;;;;;;10.82;2.38;;;7.20;99.90;;;;;;5047636;28;20147;-68
2023/12/22 10:19:54;;;;;;;5.97;0.90;;;7.20;99.90;;;;;;5049196;28;20052;-68
2023/12/22 10:22:22;;;;;;;6.18;0.85;;;7.20;99.90;;;;;;5050030;28;20045;-69
2023/12/22 10:24:50;;;;;;;4.68;0.90;;;7.10;99.90;;;;;;5045450;28;20040;-69
2023/12/22 10:27:23;;;;;;;8.40;1.65;;;7.10;99.90;;;;;;5049129;28;20679;-70
2023/12/22 10:29:56;;;;;;;4.05;1.17;;;7.10;99.90;;;;;;5043665;28;20037;-71
2023/12/22 10:32:22;;;;;;;10.18;2.50;;;7.10;99.90;;;;;;5046988;28;20053;-71
2023/12/22 10:34:50;;;;;;;10.40;2.45;;;7.10;99.90;;;;;;5047805;28;20094;-71
2023/12/22 10:37:16;;;;;;;5.20;1.48;;;7.10;99.90;;;;;;5043330;28;20045;-70
2023/12/22 10:39:42;;;;;;;6.15;1.40;;;7.10;99.90;;;;;;5046778;28;20044;-71
2023/12/22 10:42:08;;;;;;;8.63;1.30;;;7.10;99.90;;;;;;5044319;28;20084;-69
2023/12/22 10:44:34;;;;;;;12.05;1.70;;;7.00;99.90;;;;;;5046322;28;20253;-68
2023/12/22 10:47:00;;;;;;;8.52;1.77;;;7.00;99.90;;;;;;5050702;28;20727;-69
2023/12/22 10:49:26;;;;;;;8.70;1.25;;;7.00;99.90;;;;;;5046336;28;20618;-69
2023/12/22 10:51:52;;;;;;;10.32;1.48;;;6.90;99.90;;;;;;5041452;28;20045;-69
2023/12/22 10:54:19;;;;;;;12.27;2.85;;;6.90;99.90;;;;;;5047988;28;20372;-69
2023/12/22 10:56:44;;;;;;;16.35;3.50;;;6.90;99.90;;;;;;5044963;28;20045;-69
2023/12/22 10:59:10;;;;;;;14.82;3.15;;;6.90;99.90;;;;;;5045401;28;20439;-69
2023/12/22 11:01:38;;;;;;;9.50;2.00;;;6.90;99.90;;;;;;5044084;28;20068;-70
2023/12/22 11:04:07;;;;;;;6.65;1.52;;;6.90;99.90;;;;;;5043790;28;20053;-70
2023/12/22 11:06:37;;;;;;;11.80;2.25;;;6.80;99.90;;;;;;5044265;28;20049;-69
2023/12/22 11:09:17;;;;;;;7.82;1.50;;;6.80;99.90;;;;;;5047908;28;20156;-71
2023/12/22 11:11:44;;;;;;;13.98;3.30;;;6.80;99.90;;;;;;5061726;28;20049;-69
2023/12/22 11:14:12;;;;;;;7.78;1.40;;;6.80;99.90;;;;;;5065453;28;20112;-68
2023/12/22 11:16:40;;;;;;;6.80;1.50;;;6.80;99.90;;;;;;5046924;28;20493;-68
2023/12/22 11:19:06;;;;;;;9.52;1.17;;;6.80;99.90;;;;;;5047430;28;20508;-68
2023/12/22 11:21:32;;;;;;;5.07;1.13;;;6.80;99.90;;;;;;5044402;28;20053;-68
2023/12/22 11:23:59;;;;;;;9.85;1.45;;;6.80;99.90;;;;;;5043874;28;20162;-68
2023/12/22 11:26:25;;;;;;;9.15;2.40;;;6.80;99.90;;;;;;5046541;28;20041;-70
2023/12/22 11:28:52;;;;;;;8.98;1.48;;;6.90;99.90;;;;;;5037884;28;20045;-70
2023/12/22 11:31:18;;;;;;;6.22;0.73;;;6.90;99.90;;;;;;5045822;28;20529;-70
2023/12/22 11:33:46;;;;;;;6.17;0.80;;;6.90;99.90;;;;;;5042770;28;20049;-70
2023/12/22 11:36:13;;;;;;;;;;;6.90;99.90;;;;;;5043150;28;20123;-70
2023/12/22 11:38:42;;;;;;;6.20;1.20;;;6.90;99.90;;;;;;5062133;28;19924;-70
2023/12/22 11:41:15;;;;;;;8.80;1.27;;;7.00;99.90;;;;;;5041729;28;20048;-69
2023/12/22 11:43:42;;;;;;;5.03;0.68;;;7.00;99.90;;;;;;5029463;28;20052;-70
2023/12/22 11:46:08;;;;;;;1.98;0.52;;;7.00;99.90;;;;;;5047875;28;20099;-70
2023/12/22 11:48:34;;;;;;;2.47;0.70;;;7.10;99.90;;;;;;5044213;28;20400;-69
2023/12/22 11:51:01;;;;;;;3.72;0.80;;;7.10;99.90;;;;;;5036134;28;20033;-70
2023/12/22 11:53:34;;;;;;;2.33;0.65;;;7.10;99.90;;;;;;5042970;28;20124;-71
2023/12/22 11:56:01;;;;;;;6.05;1.13;;;7.10;99.90;;;;;;5036942;28;20121;-68
2023/12/22 11:58:54;;;;;;;5.50;0.73;;;7.10;99.90;;;;;;5040408;28;20178;-68
2023/12/22 12:01:21;;;;;;;6.03;0.95;;;7.20;99.90;;;;;;5048991;28;20052;-68
2023/12/22 12:03:52;;;;;;;3.25;0.60;;;7.20;99.90;;;;;;5043966;28;20668;-68
2023/12/22 12:06:29;;;;;;;2.17;0.70;;;7.20;99.90;;;;;;5035611;28;20053;-68
2023/12/22 12:09:01;;;;;;;5.30;1.02;;;7.20;99.90;;;;;;5049427;28;20180;-70
2023/12/22 12:11:51;;;;;;;3.65;1.00;;;7.20;99.90;;;;;;5052363;28;20394;-68
2023/12/22 12:14:22;;;;;;;7.68;0.80;;;7.20;99.90;;;;;;5040990;28;20123;-68
2023/12/22 12:16:48;;;;;;;4.40;0.80;;;7.20;99.90;;;;;;5040099;28;20049;-68
2023/12/22 12:19:14;;;;;;;3.03;0.65;;;7.30;99.90;;;;;;5036813;28;20063;-68
2023/12/22 12:21:40;;;;;;;7.43;1.40;;;7.20;99.90;;;;;;5037673;28;20046;-68
2023/12/22 12:24:06;;;;;;;5.47;2.08;;;7.30;99.90;;;;;;5028497;28;20085;-68
2023/12/22 12:26:36;;;;;;;5.32;1.60;;;7.30;99.90;;;;;;5048663;28;20080;-68
2023/12/22 12:29:02;;;;;;;6.15;0.80;;;7.30;99.90;;;;;;5030323;28;20500;-68
2023/12/22 12:31:38;;;;;;;7.30;1.77;;;7.30;99.90;;;;;;5032138;28;20044;-69
2023/12/22 12:34:05;;;;;;;9.27;1.40;;;7.30;99.90;;;;;;5044044;28;20084;-69
2023/12/22 12:36:31;;;;;;;8.23;2.25;;;7.30;99.90;;;;;;5036928;28;20037;-69
2023/12/22 12:39:13;;;;;;;5.63;1.23;;;7.30;99.90;;;;;;5053741;28;20053;-71
2023/12/22 12:41:45;;;;;;;7.18;0.90;;;7.30;99.90;;;;;;5039102;28;20091;-68
2023/12/22 12:44:11;;;;;;;7.82;1.13;;;7.30;99.90;;;;;;5038205;28;20049;-69
2023/12/22 12:46:38;;;;;;;9.07;1.60;;;7.30;99.90;;;;;;5043497;28;20041;-70
2023/12/22 12:49:14;;;;;;;7.65;0.75;;;7.30;99.90;;;;;;5044594;28;20104;-71